createdAt,value
2019-04-01T00:02:04.172Z,2.75
2019-04-01T00:04:33.011Z,2.74
2019-04-01T00:07:01.551Z,2.73
2019-04-01T00:09:30.017Z,2.71
2019-04-01T00:11:58.945Z,2.67
2019-04-01T00:14:27.414Z,2.64
2019-04-01T00:16:55.879Z,2.63
2019-04-01T00:19:24.602Z,2.60
2019-04-01T00:21:53.071Z,2.57
2019-04-01T00:24:21.950Z,2.53
2019-04-01T00:26:50.670Z,2.47
2019-04-01T00:29:19.153Z,2.43
2019-04-01T00:31:47.607Z,2.37
2019-04-01T00:34:16.298Z,2.31
2019-04-01T00:36:44.769Z,2.27
2019-04-01T00:39:13.228Z,2.23
2019-04-01T00:41:46.318Z,2.19
2019-04-01T00:44:14.783Z,2.17
2019-04-01T00:46:43.256Z,2.17
2019-04-01T00:49:12.017Z,2.15
2019-04-01T00:51:40.510Z,2.13
2019-04-01T00:54:09.000Z,2.11
2019-04-01T00:56:37.516Z,2.06
2019-04-01T00:59:05.990Z,2.04
2019-04-01T01:01:34.475Z,2.00
2019-04-01T01:04:02.963Z,1.97
2019-04-01T01:06:31.450Z,1.94
2019-04-01T01:08:59.883Z,1.91
2019-04-01T01:11:29.664Z,1.88
2019-04-01T01:13:58.163Z,1.84
2019-04-01T01:16:26.654Z,1.83
2019-04-01T01:18:55.157Z,1.81
2019-04-01T01:21:23.641Z,1.79
2019-04-01T01:23:52.175Z,1.76
2019-04-01T01:26:20.775Z,1.73
2019-04-01T01:28:49.306Z,1.71
2019-04-01T01:31:17.772Z,1.69
2019-04-01T01:33:47.017Z,1.67
2019-04-01T01:36:15.493Z,1.65
2019-04-01T01:38:43.992Z,1.63
2019-04-01T01:41:12.508Z,1.61
2019-04-01T01:43:40.975Z,1.58
2019-04-01T01:46:09.782Z,1.53
2019-04-01T01:48:38.285Z,1.51
2019-04-01T01:51:06.776Z,1.48
2019-04-01T01:53:35.363Z,1.44
2019-04-01T01:56:04.578Z,1.40
2019-04-01T01:58:33.238Z,1.40
2019-04-01T02:01:01.720Z,1.37
2019-04-01T02:03:30.259Z,1.36
2019-04-01T02:05:58.730Z,1.35
2019-04-01T02:08:27.230Z,1.31
2019-04-01T02:10:55.713Z,1.31
2019-04-01T02:13:24.177Z,1.29
2019-04-01T02:15:54.039Z,1.25
2019-04-01T02:18:23.168Z,1.20
2019-04-01T02:20:51.648Z,1.15
2019-04-01T02:23:20.131Z,1.09
2019-04-01T02:25:48.853Z,1.06
2019-04-01T02:28:17.313Z,1.04
2019-04-01T02:30:45.776Z,1.02
2019-04-01T02:33:14.873Z,1.02
2019-04-01T02:35:43.347Z,1.02
2019-04-01T02:38:11.803Z,1.00
2019-04-01T02:40:40.347Z,0.97
2019-04-01T02:43:08.971Z,0.94
2019-04-01T02:45:37.440Z,0.91
2019-04-01T02:48:06.007Z,0.90
2019-04-01T02:50:34.851Z,0.89
2019-04-01T02:53:03.319Z,0.88
2019-04-01T02:55:32.095Z,0.88
2019-04-01T02:58:00.592Z,0.85
2019-04-01T03:00:29.379Z,0.81
2019-04-01T03:02:57.873Z,0.79
2019-04-01T03:05:26.340Z,0.73
2019-04-01T03:07:54.789Z,0.71
2019-04-01T03:10:23.539Z,0.70
2019-04-01T03:12:52.013Z,0.71
2019-04-01T03:15:20.482Z,0.72
2019-04-01T03:17:49.237Z,0.71
2019-04-01T03:20:17.750Z,0.72
2019-04-01T03:22:46.216Z,0.73
2019-04-01T03:25:14.729Z,0.74
2019-04-01T03:27:43.223Z,0.76
2019-04-01T03:30:12.215Z,0.74
2019-04-01T03:32:45.178Z,0.71
2019-04-01T03:35:11.290Z,0.68
2019-04-01T03:37:39.875Z,0.64
2019-04-01T03:40:08.792Z,0.60
2019-04-01T03:42:37.643Z,0.57
2019-04-01T03:45:07.063Z,0.56
2019-04-01T03:47:35.873Z,0.54
2019-04-01T03:50:05.153Z,0.52
2019-04-01T03:52:33.618Z,0.49
2019-04-01T03:55:02.297Z,0.44
2019-04-01T03:57:30.749Z,0.41
2019-04-01T04:00:01.573Z,0.39
2019-04-01T04:02:30.115Z,0.41
2019-04-01T04:04:58.575Z,0.41
2019-04-01T04:07:27.042Z,0.44
2019-04-01T04:09:55.549Z,0.46
2019-04-01T04:12:24.135Z,0.47
2019-04-01T04:14:52.635Z,0.45
2019-04-01T04:17:21.363Z,0.43
2019-04-01T04:19:50.008Z,0.43
2019-04-01T04:22:18.643Z,0.43
2019-04-01T04:24:47.189Z,0.44
2019-04-01T04:27:15.778Z,0.45
2019-04-01T04:29:44.295Z,0.44
2019-04-01T04:32:13.110Z,0.45
2019-04-01T04:34:41.577Z,0.45
2019-04-01T04:37:10.049Z,0.44
2019-04-01T04:39:38.671Z,0.43
2019-04-01T04:42:07.126Z,0.43
2019-04-01T04:44:35.765Z,0.41
2019-04-01T04:47:04.286Z,0.39
2019-04-01T04:49:32.754Z,0.41
2019-04-01T04:52:04.465Z,0.41
2019-04-01T04:54:31.442Z,0.40
2019-04-01T04:57:00.030Z,0.39
2019-04-01T04:59:28.576Z,0.40
2019-04-01T05:01:57.090Z,0.40
2019-04-01T05:04:25.558Z,0.41
2019-04-01T05:06:54.060Z,0.42
2019-04-01T05:09:23.950Z,0.45
2019-04-01T05:11:52.523Z,0.46
2019-04-01T05:14:21.008Z,0.47
2019-04-01T05:16:49.513Z,0.49
2019-04-01T05:19:17.990Z,0.51
2019-04-01T05:21:47.405Z,0.53
2019-04-01T05:24:16.922Z,0.57
2019-04-01T05:26:45.493Z,0.62
2019-04-01T05:29:15.785Z,0.65
2019-04-01T05:31:46.850Z,0.68
2019-04-01T05:34:17.642Z,0.71
2019-04-01T05:36:47.140Z,0.76
2019-04-01T05:39:16.205Z,0.81
2019-04-01T05:41:45.135Z,0.86
2019-04-01T05:44:14.190Z,0.91
2019-04-01T05:46:42.815Z,0.97
2019-04-01T05:49:11.290Z,1.04
2019-04-01T05:51:39.831Z,1.10
2019-04-01T05:54:11.078Z,1.16
2019-04-01T05:56:39.581Z,1.22
2019-04-01T05:59:08.059Z,1.28
2019-04-01T06:01:42.201Z,1.34
2019-04-01T06:04:10.677Z,1.40
2019-04-01T06:06:39.138Z,1.49
2019-04-01T06:09:09.080Z,1.57
2019-04-01T06:11:37.792Z,1.66
2019-04-01T06:14:06.525Z,1.73
2019-04-01T06:16:35.140Z,1.81
2019-04-01T06:19:05.961Z,1.89
2019-04-01T06:21:35.468Z,1.98
2019-04-01T06:24:04.676Z,2.06
2019-04-01T06:26:33.245Z,2.17
2019-04-01T06:29:01.716Z,2.25
2019-04-01T06:31:30.222Z,2.35
2019-04-01T06:33:58.757Z,2.45
2019-04-01T06:36:27.396Z,2.54
2019-04-01T06:38:55.906Z,2.64
2019-04-01T06:41:24.588Z,2.73
2019-04-01T06:43:53.072Z,2.82
2019-04-01T06:46:21.591Z,2.93
2019-04-01T06:48:50.071Z,3.03
2019-04-01T06:51:18.555Z,3.13
2019-04-01T06:53:47.339Z,3.24
2019-04-01T06:56:15.890Z,3.34
2019-04-01T06:58:44.347Z,3.46
2019-04-01T07:01:12.950Z,3.57
2019-04-01T07:03:41.408Z,3.68
2019-04-01T07:06:09.966Z,3.81
2019-04-01T07:08:38.792Z,3.92
2019-04-01T07:11:07.297Z,4.03
2019-04-01T07:13:39.707Z,4.16
2019-04-01T07:16:15.304Z,4.27
2019-04-01T07:18:36.795Z,4.38
2019-04-01T07:21:05.622Z,4.50
2019-04-01T07:23:34.694Z,4.63
2019-04-01T07:26:03.958Z,4.78
2019-04-01T07:28:32.606Z,4.95
2019-04-01T07:31:01.632Z,5.12
2019-04-01T07:33:30.165Z,5.27
2019-04-01T07:35:58.653Z,5.41
2019-04-01T07:38:27.613Z,5.52
2019-04-01T07:40:59.107Z,5.65
2019-04-01T07:43:26.770Z,5.77
2019-04-01T07:45:55.370Z,5.88
2019-04-01T07:48:23.888Z,5.99
2019-04-01T07:50:52.456Z,6.08
2019-04-01T07:53:21.201Z,6.20
2019-04-01T07:55:49.752Z,6.29
2019-04-01T07:58:18.230Z,6.38
2019-04-01T08:00:46.836Z,6.48
2019-04-01T08:03:15.740Z,6.56
2019-04-01T08:05:44.207Z,6.66
2019-04-01T08:08:12.823Z,6.75
2019-04-01T08:10:41.311Z,6.85
2019-04-01T08:13:10.183Z,6.93
2019-04-01T08:15:38.863Z,6.99
2019-04-01T08:18:07.337Z,7.05
2019-04-01T08:20:35.871Z,7.10
2019-04-01T08:23:04.559Z,7.15
2019-04-01T08:25:39.155Z,7.19
2019-04-01T08:28:07.761Z,7.22
2019-04-01T08:30:36.248Z,7.25
2019-04-01T08:33:05.117Z,7.28
2019-04-01T08:35:34.083Z,7.34
2019-04-01T08:38:03.023Z,7.37
2019-04-01T08:40:31.767Z,7.41
2019-04-01T08:43:00.556Z,7.45
2019-04-01T08:45:29.220Z,7.51
2019-04-01T08:47:57.772Z,7.53
2019-04-01T08:50:26.499Z,7.57
2019-04-01T08:52:55.169Z,7.62
2019-04-01T08:55:23.631Z,7.66
2019-04-01T08:57:52.181Z,7.71
2019-04-01T09:00:21.352Z,7.75
2019-04-01T09:02:49.891Z,7.79
2019-04-01T09:05:18.391Z,7.80
2019-04-01T09:07:47.241Z,7.84
2019-04-01T09:10:16.498Z,7.87
2019-04-01T09:12:45.291Z,7.90
2019-04-01T09:15:14.328Z,7.98
2019-04-01T09:17:42.872Z,8.05
2019-04-01T09:20:11.998Z,8.11
2019-04-01T09:22:40.791Z,8.17
2019-04-01T09:25:09.740Z,8.23
2019-04-01T09:27:38.190Z,8.31
2019-04-01T09:30:08.253Z,8.37
2019-04-01T09:32:36.728Z,8.42
2019-04-01T09:35:08.672Z,8.48
2019-04-01T09:37:37.318Z,8.51
2019-04-01T09:40:07.500Z,8.54
2019-04-01T09:42:35.994Z,8.61
2019-04-01T09:45:09.661Z,8.70
2019-04-01T09:47:38.208Z,8.80
2019-04-01T09:50:07.872Z,8.86
2019-04-01T09:52:36.482Z,8.93
2019-04-01T09:55:06.609Z,8.99
2019-04-01T09:57:35.440Z,9.01
2019-04-01T10:00:06.730Z,9.06
2019-04-01T10:02:35.351Z,9.13
2019-04-01T10:05:06.063Z,9.19
2019-04-01T10:07:34.847Z,9.26
2019-04-01T10:10:04.802Z,9.33
2019-04-01T10:12:33.296Z,9.37
2019-04-01T10:15:01.877Z,9.39
2019-04-01T10:17:30.334Z,9.40
2019-04-01T10:20:00.870Z,9.40
2019-04-01T10:22:29.061Z,9.40
2019-04-01T10:24:57.820Z,9.42
2019-04-01T10:27:26.487Z,9.50
2019-04-01T10:29:55.095Z,9.59
2019-04-01T10:32:23.607Z,9.64
2019-04-01T10:34:52.089Z,9.69
2019-04-01T10:37:20.609Z,9.75
2019-04-01T10:39:49.074Z,9.82
2019-04-01T10:42:17.587Z,9.89
2019-04-01T10:44:47.313Z,9.96
2019-04-01T10:47:15.903Z,10.02
2019-04-01T10:49:44.467Z,10.12
2019-04-01T10:52:13.285Z,10.17
2019-04-01T10:54:41.793Z,10.21
2019-04-01T10:57:10.426Z,10.22
2019-04-01T10:59:39.126Z,10.20
2019-04-01T11:02:08.093Z,10.21
2019-04-01T11:04:36.623Z,10.25
2019-04-01T11:07:06.324Z,10.28
2019-04-01T11:09:38.431Z,10.34
2019-04-01T11:12:05.123Z,10.35
2019-04-01T11:14:34.155Z,10.41
2019-04-01T11:17:08.592Z,10.48
2019-04-01T11:19:37.143Z,10.58
2019-04-01T11:22:06.243Z,10.70
2019-04-01T11:24:34.722Z,10.84
2019-04-01T11:27:03.300Z,10.94
2019-04-01T11:29:31.882Z,11.01
2019-04-01T11:32:00.348Z,11.02
2019-04-01T11:34:28.884Z,11.07
2019-04-01T11:36:58.803Z,11.08
2019-04-01T11:39:27.325Z,11.13
2019-04-01T11:41:55.994Z,11.18
2019-04-01T11:44:24.728Z,11.25
2019-04-01T11:46:53.524Z,11.31
2019-04-01T11:49:22.466Z,11.32
2019-04-01T11:51:51.957Z,11.35
2019-04-01T11:54:20.446Z,11.45
2019-04-01T11:56:48.996Z,11.48
2019-04-01T11:59:17.542Z,11.50
2019-04-01T12:01:47.331Z,11.61
2019-04-01T12:04:16.140Z,11.73
2019-04-01T12:06:44.819Z,11.81
2019-04-01T12:09:13.334Z,11.86
2019-04-01T12:11:42.118Z,11.89
2019-04-01T12:14:10.679Z,11.97
2019-04-01T12:16:39.506Z,12.04
2019-04-01T12:19:07.983Z,12.10
2019-04-01T12:21:37.099Z,12.13
2019-04-01T12:24:06.841Z,12.16
2019-04-01T12:26:35.333Z,12.21
2019-04-01T12:29:04.231Z,12.26
2019-04-01T12:31:32.689Z,12.32
2019-04-01T12:34:01.225Z,12.43
2019-04-01T12:36:30.081Z,12.50
2019-04-01T12:38:58.951Z,12.51
2019-04-01T12:41:27.405Z,12.52
2019-04-01T12:43:55.935Z,12.50
2019-04-01T12:46:24.385Z,12.56
2019-04-01T12:48:53.071Z,12.66
2019-04-01T12:51:21.873Z,12.77
2019-04-01T12:53:50.511Z,12.85
2019-04-01T12:56:19.112Z,12.91
2019-04-01T12:58:48.071Z,12.92
2019-04-01T13:01:16.908Z,12.94
2019-04-01T13:03:45.390Z,12.98
2019-04-01T13:06:14.107Z,13.06
2019-04-01T13:08:42.610Z,13.11
2019-04-01T13:11:11.182Z,13.12
2019-04-01T13:13:39.681Z,13.17
2019-04-01T13:16:09.122Z,13.50
2019-04-01T13:18:38.271Z,14.03
2019-04-01T13:21:07.116Z,14.57
2019-04-01T13:23:36.076Z,15.02
2019-04-01T13:26:05.663Z,15.33
2019-04-01T13:28:34.526Z,15.58
2019-04-01T13:31:02.993Z,15.76
2019-04-01T13:33:31.483Z,16.06
2019-04-01T13:35:59.983Z,16.36
2019-04-01T13:38:28.507Z,16.69
2019-04-01T13:40:57.005Z,16.70
2019-04-01T13:43:28.043Z,16.68
2019-04-01T13:45:56.534Z,16.72
2019-04-01T13:48:24.997Z,16.66
2019-04-01T13:50:53.935Z,16.63
2019-04-01T13:53:22.413Z,16.59
2019-04-01T13:55:51.379Z,16.42
2019-04-01T13:58:19.990Z,16.36
2019-04-01T14:00:49.656Z,16.31
2019-04-01T14:03:18.230Z,16.29
2019-04-01T14:05:47.810Z,16.24
2019-04-01T14:08:25.658Z,16.05
2019-04-01T14:11:01.218Z,16.01
2019-04-01T14:13:29.901Z,16.21
2019-04-01T14:15:58.346Z,16.37
2019-04-01T14:18:27.162Z,16.42
2019-04-01T14:20:55.640Z,16.42
2019-04-01T14:23:24.143Z,16.46
2019-04-01T14:25:52.651Z,16.58
2019-04-01T14:28:21.336Z,16.55
2019-04-01T14:30:49.917Z,16.51
2019-04-01T14:33:18.505Z,16.45
2019-04-01T14:35:46.974Z,16.37
2019-04-01T14:38:15.488Z,16.36
2019-04-01T14:40:44.072Z,16.37
2019-04-01T14:43:12.582Z,16.30
2019-04-01T14:45:41.056Z,16.26
2019-04-01T14:48:11.756Z,16.15
2019-04-01T14:50:40.253Z,16.04
2019-04-01T14:53:09.977Z,16.04
2019-04-01T14:55:39.362Z,16.08
2019-04-01T14:58:07.851Z,16.27
2019-04-01T15:00:36.300Z,16.57
2019-04-01T15:03:05.059Z,16.94
2019-04-01T15:05:33.772Z,17.35
2019-04-01T15:08:02.329Z,17.69
2019-04-01T15:10:30.849Z,17.68
2019-04-01T15:13:05.599Z,17.68
2019-04-01T15:15:29.702Z,17.68
2019-04-01T15:17:58.389Z,17.61
2019-04-01T15:20:26.892Z,17.66
2019-04-01T15:22:55.800Z,17.89
2019-04-01T15:25:24.480Z,18.16
2019-04-01T15:27:53.282Z,18.45
2019-04-01T15:30:21.771Z,18.72
2019-04-01T15:32:50.348Z,19.03
2019-04-01T15:35:20.044Z,19.10
2019-04-01T15:37:48.499Z,19.11
2019-04-01T15:40:18.261Z,19.28
2019-04-01T15:42:47.024Z,19.42
2019-04-01T15:45:15.562Z,19.40
2019-04-01T15:47:44.142Z,19.34
2019-04-01T15:50:27.258Z,19.21
2019-04-01T15:52:43.795Z,19.20
2019-04-01T15:55:12.469Z,19.29
2019-04-01T15:57:40.964Z,19.36
2019-04-01T16:00:10.105Z,19.34
2019-04-01T16:02:39.160Z,19.22
2019-04-01T16:05:08.374Z,19.17
2019-04-01T16:07:36.842Z,19.04
2019-04-01T16:10:06.672Z,18.98
2019-04-01T16:12:35.136Z,18.93
2019-04-01T16:15:04.791Z,18.78
2019-04-01T16:17:33.958Z,18.69
2019-04-01T16:20:02.693Z,18.67
2019-04-01T16:22:31.153Z,18.50
2019-04-01T16:24:59.973Z,18.26
2019-04-01T16:27:28.611Z,18.11
2019-04-01T16:29:57.082Z,17.85
2019-04-01T16:32:25.594Z,17.65
2019-04-01T16:34:54.073Z,17.47
2019-04-01T16:37:22.822Z,17.17
2019-04-01T16:39:54.353Z,16.81
2019-04-01T16:42:21.618Z,16.63
2019-04-01T16:44:50.043Z,16.52
2019-04-01T16:47:18.698Z,16.40
2019-04-01T16:49:47.176Z,16.18
2019-04-01T16:52:16.046Z,15.93
2019-04-01T16:54:47.805Z,15.56
2019-04-01T16:57:16.292Z,15.20
2019-04-01T16:59:44.893Z,14.90
2019-04-01T17:02:18.116Z,14.71
2019-04-01T17:04:46.139Z,14.54
2019-04-01T17:07:14.373Z,14.30
2019-04-01T17:09:42.989Z,14.09
2019-04-01T17:12:11.465Z,13.97
2019-04-01T17:14:39.991Z,13.73
2019-04-01T17:17:08.830Z,13.46
2019-04-01T17:19:37.313Z,13.19
2019-04-01T17:22:07.395Z,12.93
2019-04-01T17:24:35.956Z,12.69
2019-04-01T17:27:09.930Z,12.45
2019-04-01T17:29:38.669Z,12.22
2019-04-01T17:32:07.491Z,11.99
2019-04-01T17:34:36.022Z,11.75
2019-04-01T17:37:04.504Z,11.54
2019-04-01T17:39:34.622Z,11.36
2019-04-01T17:42:03.414Z,11.20
2019-04-01T17:44:32.122Z,11.07
2019-04-01T17:47:01.172Z,10.93
2019-04-01T17:49:30.252Z,10.80
2019-04-01T17:51:59.630Z,10.67
2019-04-01T17:54:28.324Z,10.54
2019-04-01T17:56:56.864Z,10.39
2019-04-01T17:59:25.425Z,10.25
2019-04-01T18:01:56.899Z,10.11
2019-04-01T18:04:24.293Z,9.96
2019-04-01T18:06:52.785Z,9.84
2019-04-01T18:09:22.228Z,9.73
2019-04-01T18:11:50.725Z,9.60
2019-04-01T18:14:19.563Z,9.52
2019-04-01T18:16:48.148Z,9.44
2019-04-01T18:19:16.626Z,9.38
2019-04-01T18:21:45.291Z,9.31
2019-04-01T18:24:13.787Z,9.25
2019-04-01T18:26:42.259Z,9.19
2019-04-01T18:29:10.718Z,9.13
2019-04-01T18:31:39.287Z,9.09
2019-04-01T18:34:08.080Z,9.06
2019-04-01T18:36:36.546Z,9.00
2019-04-01T18:39:07.912Z,8.99
2019-04-01T18:41:36.344Z,8.96
2019-04-01T18:44:05.528Z,8.89
2019-04-01T18:46:34.150Z,8.85
2019-04-01T18:49:02.614Z,8.81
2019-04-01T18:51:31.149Z,8.76
2019-04-01T18:53:59.757Z,8.72
2019-04-01T18:56:29.193Z,8.70
2019-04-01T18:58:58.082Z,8.68
2019-04-01T19:01:26.589Z,8.64
2019-04-01T19:03:55.077Z,8.63
2019-04-01T19:06:23.530Z,8.58
2019-04-01T19:08:52.255Z,8.53
2019-04-01T19:11:22.140Z,8.49
2019-04-01T19:13:50.585Z,8.47
2019-04-01T19:16:22.847Z,8.43
2019-04-01T19:18:49.342Z,8.42
2019-04-01T19:21:17.909Z,8.40
2019-04-01T19:23:46.814Z,8.38
2019-04-01T19:26:15.461Z,8.33
2019-04-01T19:28:43.980Z,8.30
2019-04-01T19:31:12.507Z,8.28
2019-04-01T19:33:41.011Z,8.24
2019-04-01T19:36:09.499Z,8.20
2019-04-01T19:38:38.092Z,8.17
2019-04-01T19:41:06.755Z,8.12
2019-04-01T19:43:35.230Z,8.09
2019-04-01T19:46:04.238Z,8.07
2019-04-01T19:48:32.727Z,8.05
2019-04-01T19:51:01.279Z,8.01
2019-04-01T19:53:29.922Z,7.97
2019-04-01T19:55:58.709Z,7.93
2019-04-01T19:58:27.521Z,7.90
2019-04-01T20:00:56.041Z,7.87
2019-04-01T20:03:25.533Z,7.83
2019-04-01T20:05:54.419Z,7.82
2019-04-01T20:08:23.159Z,7.79
2019-04-01T20:10:51.641Z,7.78
2019-04-01T20:13:20.178Z,7.75
2019-04-01T20:15:49.271Z,7.71
2019-04-01T20:18:17.704Z,7.68
2019-04-01T20:20:46.177Z,7.65
2019-04-01T20:23:14.860Z,7.63
2019-04-01T20:25:43.788Z,7.61
2019-04-01T20:28:13.112Z,7.58
2019-04-01T20:30:42.680Z,7.56
2019-04-01T20:33:17.532Z,7.53
2019-04-01T20:35:41.435Z,7.50
2019-04-01T20:38:09.935Z,7.48
2019-04-01T20:40:38.533Z,7.45
2019-04-01T20:43:07.011Z,7.41
2019-04-01T20:45:35.680Z,7.38
2019-04-01T20:48:04.436Z,7.37
2019-04-01T20:50:33.664Z,7.34
2019-04-01T20:53:02.188Z,7.28
2019-04-01T20:55:30.672Z,7.24
2019-04-01T20:57:59.188Z,7.22
2019-04-01T21:00:27.983Z,7.20
2019-04-01T21:02:56.458Z,7.20
2019-04-01T21:05:25.111Z,7.19
2019-04-01T21:07:53.630Z,7.18
2019-04-01T21:10:22.335Z,7.15
2019-04-01T21:12:50.825Z,7.12
2019-04-01T21:15:19.519Z,7.09
2019-04-01T21:17:48.162Z,7.05
2019-04-01T21:20:16.866Z,7.02
2019-04-01T21:22:45.763Z,6.99
2019-04-01T21:25:14.783Z,6.94
2019-04-01T21:27:44.519Z,6.92
2019-04-01T21:30:13.719Z,6.87
2019-04-01T21:32:42.196Z,6.87
2019-04-01T21:35:11.086Z,6.84
2019-04-01T21:37:39.598Z,6.82
2019-04-01T21:40:08.519Z,6.78
2019-04-01T21:42:37.251Z,6.77
2019-04-01T21:45:08.672Z,6.73
2019-04-01T21:47:37.131Z,6.73
2019-04-01T21:50:07.075Z,6.73
2019-04-01T21:52:37.152Z,6.73
2019-04-01T21:55:08.095Z,6.72
2019-04-01T21:57:36.550Z,6.70
2019-04-01T22:00:11.274Z,6.70
2019-04-01T22:02:39.739Z,6.71
2019-04-01T22:05:10.349Z,6.74
2019-04-01T22:07:39.353Z,6.72
2019-04-01T22:10:08.280Z,6.71
2019-04-01T22:12:36.778Z,6.69
2019-04-01T22:15:06.657Z,6.66
2019-04-01T22:17:35.155Z,6.63
2019-04-01T22:20:05.679Z,6.62
2019-04-01T22:22:34.251Z,6.62
2019-04-01T22:25:03.602Z,6.60
2019-04-01T22:27:32.122Z,6.56
2019-04-01T22:30:00.678Z,6.55
2019-04-01T22:32:29.185Z,6.56
2019-04-01T22:34:57.934Z,6.58
2019-04-01T22:37:27.716Z,6.57
2019-04-01T22:39:56.546Z,6.59
2019-04-01T22:42:25.060Z,6.60
2019-04-01T22:44:53.604Z,6.61
2019-04-01T22:47:24.420Z,6.60
2019-04-01T22:49:52.438Z,6.61
2019-04-01T22:52:21.048Z,6.62
2019-04-01T22:54:49.829Z,6.61
2019-04-01T22:57:18.311Z,6.62
2019-04-01T22:59:46.861Z,6.63
2019-04-01T23:02:15.353Z,6.65
2019-04-01T23:04:43.880Z,6.68
2019-04-01T23:07:12.421Z,6.70
2019-04-01T23:09:40.919Z,6.73
2019-04-01T23:12:09.438Z,6.76
2019-04-01T23:14:38.443Z,6.79
2019-04-01T23:17:06.943Z,6.80
2019-04-01T23:19:35.556Z,6.81
2019-04-01T23:22:05.307Z,6.80
2019-04-01T23:24:33.793Z,6.77
2019-04-01T23:27:02.376Z,6.77
2019-04-01T23:29:31.018Z,6.76
2019-04-01T23:31:59.532Z,6.73
2019-04-01T23:34:28.029Z,6.70
2019-04-01T23:36:56.585Z,6.66
2019-04-01T23:39:25.415Z,6.63
2019-04-01T23:41:53.919Z,6.61
2019-04-01T23:44:23.448Z,6.57
2019-04-01T23:46:52.315Z,6.53
2019-04-01T23:49:20.816Z,6.49
2019-04-01T23:51:49.501Z,6.47
2019-04-01T23:54:17.997Z,6.44
2019-04-01T23:56:46.570Z,6.42
2019-04-01T23:59:15.094Z,6.43
